Time;durP1;ratioP1;P1;durP2;ratioP2;P2;SDS_P1;SDS_P2;PMS_P1;PMS_P2;Temp;Humidity;BMP_temperature;BMP_pressure;BME280_temperature;BME280_humidity;BME280_pressure;Samples;Min_cycle;Max_cycle;Signal;HPM_P1;HPM_P2
2021/11/23 00:02:17;;;;;;;36.47;15.30;;;;;;;5.70;100.00;102525.72;5091738;28;20043;-76
2021/11/23 00:04:42;;;;;;;35.37;16.43;;;;;;;5.70;100.00;102531.00;5091422;28;20040;-76
2021/11/23 00:07:08;;;;;;;36.13;17.25;;;;;;;5.76;100.00;102533.31;5091807;28;20317;-76
2021/11/23 00:09:34;;;;;;;38.20;17.23;;;;;;;5.77;100.00;102540.31;5090819;28;20036;-76
2021/11/23 00:11:59;;;;;;;60.30;17.17;;;;;;;5.84;100.00;102560.22;5073834;28;20119;-76
2021/11/23 00:14:24;;;;;;;37.25;16.75;;;;;;;5.79;100.00;102551.69;5090442;28;20036;-76
2021/11/23 00:16:50;;;;;;;44.15;17.05;;;;;;;5.86;100.00;102558.34;5091705;28;20051;-76
2021/11/23 00:19:15;;;;;;;34.53;15.40;;;;;;;5.85;100.00;102561.94;5091438;28;20441;-76
2021/11/23 00:21:41;;;;;;;39.87;16.13;;;;;;;5.87;100.00;102567.16;5090615;28;20169;-76
2021/11/23 00:24:07;;;;;;;39.53;16.03;;;;;;;5.91;100.00;102584.59;5090356;28;20472;-76
2021/11/23 00:26:33;;;;;;;39.38;15.35;;;;;;;5.94;100.00;102581.78;5090519;28;20384;-76
2021/11/23 00:28:58;;;;;;;54.72;17.38;;;;;;;5.95;100.00;102587.94;5090438;28;20042;-76
2021/11/23 00:31:24;;;;;;;37.33;15.75;;;;;;;5.98;100.00;102599.25;5090453;28;20032;-76
2021/11/23 00:33:49;;;;;;;31.48;14.48;;;;;;;6.01;100.00;102609.66;5089586;28;20039;-76
2021/11/23 00:36:15;;;;;;;28.93;13.77;;;;;;;6.01;100.00;102604.38;5091479;28;20371;-76
2021/11/23 00:38:45;;;;;;;31.87;14.60;;;;;;;6.01;100.00;102609.66;5090200;28;20031;-75
2021/11/23 00:41:12;;;;;;;33.58;13.55;;;;;;;5.92;100.00;102589.81;5091379;28;20456;-76
2021/11/23 00:43:38;;;;;;;34.72;13.98;;;;;;;5.99;100.00;102614.19;5072833;28;20119;-75
2021/11/23 00:46:04;;;;;;;30.38;12.77;;;;;;;6.01;100.00;102614.97;5090963;28;20430;-75
2021/11/23 00:48:29;;;;;;;32.20;14.70;;;;;;;6.01;100.00;102614.97;5090033;28;20070;-75
2021/11/23 00:50:55;;;;;;;36.10;14.60;;;;;;;5.96;100.00;102606.44;5090931;28;20587;-75
2021/11/23 00:53:20;;;;;;;31.97;14.20;;;;;;;5.91;100.00;102609.31;5089800;28;20036;-76
2021/11/23 00:55:46;;;;;;;29.30;13.02;;;;;;;5.94;100.00;102610.97;5090907;28;20119;-76
2021/11/23 00:58:11;;;;;;;34.47;14.90;;;;;;;6.00;100.00;102623.03;5073067;28;20036;-76
2021/11/23 01:00:37;;;;;;;31.10;13.33;;;;;;;5.98;100.00;102620.44;5089873;28;20050;-76
2021/11/23 01:03:03;;;;;;;33.47;13.65;;;;;;;6.01;100.00;102622.91;5089512;28;20451;-75
2021/11/23 01:05:28;;;;;;;43.60;15.77;;;;;;;5.97;100.00;102601.97;5072993;28;20024;-75
2021/11/23 01:07:55;;;;;;;37.87;15.70;;;;;;;5.96;100.00;102605.56;5090943;28;20341;-76
2021/11/23 01:10:21;;;;;;;44.17;17.48;;;;;;;5.98;100.00;102598.41;5090794;28;20028;-76
2021/11/23 01:12:49;;;;;;;43.63;17.10;;;;;;;5.96;100.00;102602.94;5090362;28;20031;-75
2021/11/23 01:15:15;;;;;;;44.13;17.38;;;;;;;5.90;100.00;102596.16;5072707;28;20050;-76
2021/11/23 01:17:40;;;;;;;48.40;16.77;;;;;;;5.90;100.00;102591.69;5089479;28;20039;-75
2021/11/23 01:20:09;;;;;;;40.70;16.38;;;;;;;5.91;100.00;102588.09;5072603;28;20093;-75
2021/11/23 01:22:34;;;;;;;60.22;16.30;;;;;;;5.90;100.00;102606.75;5072629;28;20047;-76
2021/11/23 01:25:00;;;;;;;41.63;16.60;;;;;;;5.88;100.00;102606.84;5090244;28;20511;-75
2021/11/23 01:27:25;;;;;;;41.78;16.73;;;;;;;5.93;100.00;102623.34;5089254;28;20468;-75
2021/11/23 01:29:51;;;;;;;44.05;15.05;;;;;;;5.88;100.00;102609.50;5072320;28;20052;-75
2021/11/23 01:32:17;;;;;;;46.10;15.93;;;;;;;5.84;100.00;102596.50;5090232;28;20026;-75
2021/11/23 01:34:42;;;;;;;41.63;15.68;;;;;;;5.74;100.00;102576.75;5088735;28;20143;-75
2021/11/23 01:37:08;;;;;;;36.03;13.60;;;;;;;5.75;100.00;102583.75;5072275;28;20101;-75
2021/11/23 01:39:33;;;;;;;34.15;11.52;;;;;;;5.56;100.00;102558.28;5089856;28;20039;-75
2021/11/23 01:41:59;;;;;;;35.07;11.20;;;;;;;5.61;100.00;102561.53;5089140;28;20032;-76
2021/11/23 01:44:24;;;;;;;31.63;13.40;;;;;;;5.55;100.00;102556.59;5088692;28;20498;-75
2021/11/23 01:46:50;;;;;;;24.15;7.80;;;;;;;5.50;100.00;102550.66;5090164;28;20042;-76
2021/11/23 01:49:16;;;;;;;23.42;6.90;;;;;;;5.55;100.00;102566.31;5089871;28;20077;-76
2021/11/23 01:51:42;;;;;;;19.98;6.38;;;;;;;5.59;100.00;102575.78;5088721;28;20085;-76
2021/11/23 01:54:07;;;;;;;;;;;;;;;5.58;100.00;102590.84;5088917;28;20115;-75
2021/11/23 01:56:33;;;;;;;;;;;;;;;5.62;100.00;102597.69;5089249;28;20002;-75
2021/11/23 01:58:58;;;;;;;23.00;4.23;;;;;;;5.49;100.00;102584.25;5088784;28;19999;-75
2021/11/23 02:01:24;;;;;;;15.30;3.60;;;;;;;5.45;100.00;102579.22;5089521;28;20028;-76
2021/11/23 02:03:50;;;;;;;20.50;5.13;;;;;;;5.46;100.00;102597.69;5088418;28;20040;-75
2021/11/23 02:06:15;;;;;;;19.73;4.07;;;;;;;5.36;100.00;102601.78;5089603;28;20043;-75
2021/11/23 02:08:41;;;;;;;22.17;3.42;;;;;;;5.61;100.00;102646.31;5088558;28;20484;-75
2021/11/23 02:11:07;;;;;;;16.90;4.07;;;;;;;5.55;100.00;102641.38;5088455;28;20032;-75
2021/11/23 02:13:33;;;;;;;20.05;4.03;;;;;;;5.59;100.00;102653.50;5088197;28;20085;-76
2021/11/23 02:16:00;;;;;;;14.73;3.05;;;;;;;5.51;100.00;102631.88;5088567;28;20073;-75
2021/11/23 02:18:26;;;;;;;10.65;2.17;;;;;;;5.53;100.00;102639.75;5089318;28;20054;-75
2021/11/23 02:20:53;;;;;;;23.13;3.83;;;;;;;5.52;100.00;102651.25;5088376;28;20016;-76
2021/11/23 02:23:19;;;;;;;14.68;2.58;;;;;;;5.39;100.00;102633.38;5071081;28;20032;-76
2021/11/23 02:25:45;;;;;;;;;;;;;;;5.37;100.00;102642.34;5071739;28;20032;-75
2021/11/23 02:28:11;;;;;;;;;;;;;;;5.29;100.00;102626.84;5088663;28;19923;-75
2021/11/23 02:30:46;;;;;;;25.17;4.10;;;;;;;5.28;100.00;102627.81;5088035;28;19941;-75
2021/11/23 02:33:14;;;;;;;9.30;2.08;;;;;;;5.20;100.00;102620.28;5087947;28;20365;-76
2021/11/23 02:35:40;;;;;;;7.97;2.45;;;;;;;5.09;100.00;102609.41;5069860;28;20411;-75
2021/11/23 02:38:05;;;;;;;12.48;2.08;;;;;;;5.08;100.00;102616.50;5071129;28;20127;-76
2021/11/23 02:40:31;;;;;;;24.58;2.58;;;;;;;5.04;100.00;102616.72;5088880;28;20065;-75
2021/11/23 02:42:56;;;;;;;16.03;3.10;;;;;;;5.13;100.00;102633.91;5070702;28;20369;-76
2021/11/23 02:45:26;;;;;;;8.10;2.03;;;;;;;5.07;100.00;102633.28;5087944;28;20118;-75
2021/11/23 02:47:52;;;;;;;13.90;2.17;;;;;;;5.07;100.00;102637.75;5088776;28;20067;-76
2021/11/23 02:50:20;;;;;;;16.67;2.72;;;;;;;4.99;100.00;102624.91;5088838;28;20031;-75
2021/11/23 02:52:48;;;;;;;14.07;1.85;;;;;;;5.05;100.00;102651.03;5088045;28;20039;-76
2021/11/23 02:55:15;;;;;;;13.85;2.35;;;;;;;4.97;100.00;102653.25;5088528;28;20024;-75
2021/11/23 02:57:41;;;;;;;12.05;1.77;;;;;;;5.03;100.00;102666.19;5088588;28;20036;-76
2021/11/23 03:00:16;;;;;;;17.67;1.85;;;;;;;4.87;100.00;102641.44;5087738;28;20419;-75
2021/11/23 03:02:41;;;;;;;21.48;3.10;;;;;;;4.89;100.00;102651.94;5087588;28;20122;-76
2021/11/23 03:05:08;;;;;;;15.53;1.70;;;;;;;4.80;100.00;102635.59;5088355;28;20023;-75
2021/11/23 03:07:34;;;;;;;16.77;2.95;;;;;;;4.83;100.00;102645.19;5088962;28;20334;-75
2021/11/23 03:10:00;;;;;;;15.27;1.92;;;;;;;4.97;100.00;102669.13;5087485;28;20540;-75
2021/11/23 03:12:26;;;;;;;17.60;2.30;;;;;;;4.95;100.00;102665.72;5088794;28;20036;-75
2021/11/23 03:14:52;;;;;;;;;;;;;;;4.96;100.00;102680.66;5071245;28;20093;-75
2021/11/23 03:17:19;;;;;;;14.77;1.80;;;;;;;4.86;100.00;102676.75;5094294;28;20317;-75
2021/11/23 03:19:46;;;;;;;13.13;2.13;;;;;;;4.78;100.00;102663.94;5094247;28;20032;-75
2021/11/23 03:22:11;;;;;;;16.02;2.13;;;;;;;4.78;100.00;102668.38;5094565;28;20089;-76
2021/11/23 03:24:38;;;;;;;18.50;2.45;;;;;;;4.75;100.00;102663.22;5094808;28;20036;-75
2021/11/23 03:27:05;;;;;;;20.75;3.25;;;;;;;4.65;100.00;102653.09;5094189;28;20519;-75
2021/11/23 03:29:31;;;;;;;19.05;3.35;;;;;;;4.62;100.00;102655.06;5077228;28;20128;-76
2021/11/23 03:31:57;;;;;;;13.40;2.00;;;;;;;4.70;100.00;102675.81;5094212;28;20085;-76
2021/11/23 03:34:23;;;;;;;15.52;2.83;;;;;;;4.80;100.00;102692.94;5093450;28;20428;-75
2021/11/23 03:36:49;;;;;;;13.27;2.88;;;;;;;4.81;100.00;102713.19;5095112;28;20127;-75
2021/11/23 03:39:15;;;;;;;16.15;1.90;;;;;;;4.85;100.00;102717.41;5094164;28;20562;-75
2021/11/23 03:41:42;;;;;;;17.13;1.92;;;;;;;4.78;100.00;102716.00;5093969;28;20028;-75
2021/11/23 03:44:08;;;;;;;19.30;1.98;;;;;;;4.81;100.00;102715.84;5093766;28;20031;-75
2021/11/23 03:46:34;;;;;;;20.40;3.80;;;;;;;4.90;100.00;102741.84;5094054;28;20131;-75
2021/11/23 03:49:00;;;;;;;14.63;2.72;;;;;;;4.76;100.00;102717.88;5094071;28;20518;-75
2021/11/23 03:51:26;;;;;;;13.13;2.28;;;;;;;4.62;100.00;102711.47;5093811;28;20153;-76
2021/11/23 03:53:51;;;;;;;20.63;2.15;;;;;;;4.58;100.00;102715.19;5094640;28;20032;-75
2021/11/23 03:56:17;;;;;;;43.42;3.40;;;;;;;4.60;100.00;102736.28;5093665;28;20036;-76
2021/11/23 03:58:43;;;;;;;12.55;1.95;;;;;;;4.57;100.00;102734.66;5093803;28;20036;-75
2021/11/23 04:01:09;;;;;;;12.95;1.80;;;;;;;4.63;100.00;102752.00;5093946;28;20113;-75
2021/11/23 04:03:37;;;;;;;18.00;3.17;;;;;;;4.62;100.00;102753.78;5076817;28;20052;-75
2021/11/23 04:06:04;;;;;;;19.27;3.13;;;;;;;4.63;100.00;102755.50;5094764;28;20501;-75
2021/11/23 04:08:30;;;;;;;21.02;3.65;;;;;;;4.61;100.00;102740.63;5094177;28;20036;-75
2021/11/23 04:10:55;;;;;;;15.48;2.25;;;;;;;4.81;100.00;102774.91;5094754;28;20042;-75
2021/11/23 04:13:21;;;;;;;27.40;4.90;;;;;;;4.80;100.00;102757.34;5094578;28;20118;-75
2021/11/23 04:15:47;;;;;;;19.60;4.50;;;;;;;4.65;100.00;102735.13;5076912;28;20036;-75
2021/11/23 04:18:14;;;;;;;30.52;2.42;;;;;;;4.56;100.00;102724.97;5093808;28;20040;-75
2021/11/23 04:20:39;;;;;;;24.60;2.13;;;;;;;4.48;100.00;102724.53;5093988;28;20030;-75
2021/11/23 04:23:05;;;;;;;12.82;2.13;;;;;;;4.34;100.00;102701.38;5093634;28;20431;-76
2021/11/23 04:25:31;;;;;;;17.52;1.73;;;;;;;4.22;100.00;102696.69;5076740;28;20569;-75
2021/11/23 04:27:57;;;;;;;11.63;1.98;;;;;;;4.28;100.00;102737.84;5091124;28;20047;-75
2021/11/23 04:30:23;;;;;;;18.90;1.92;;;;;;;4.12;100.00;102727.13;5090449;28;20532;-76
2021/11/23 04:32:49;;;;;;;;;;;;;;;4.06;100.00;102730.91;5091827;28;20051;-75
2021/11/23 04:35:15;;;;;;;16.85;1.55;;;;;;;3.98;100.00;102725.13;5090158;28;20727;-75
2021/11/23 04:37:41;;;;;;;13.98;1.58;;;;;;;4.07;100.00;102761.69;5090431;28;20024;-75
2021/11/23 04:40:08;;;;;;;18.27;2.22;;;;;;;4.05;100.00;102746.84;5090421;28;20103;-75
2021/11/23 04:42:34;;;;;;;15.45;1.55;;;;;;;4.01;100.00;102754.06;5090178;28;20032;-75
2021/11/23 04:45:01;;;;;;;9.63;1.48;;;;;;;4.12;100.00;102785.28;5090059;28;20448;-75
2021/11/23 04:47:27;;;;;;;25.00;2.65;;;;;;;4.24;100.00;102800.59;5091082;28;20030;-75
2021/11/23 04:49:52;;;;;;;12.20;1.50;;;;;;;4.20;100.00;102809.59;5089921;28;20039;-75
2021/11/23 04:52:17;;;;;;;5.87;1.77;;;;;;;4.18;100.00;102822.88;5089898;28;20032;-75
2021/11/23 04:54:44;;;;;;;10.23;1.33;;;;;;;4.27;100.00;102831.31;5090737;28;20100;-75
2021/11/23 04:57:10;;;;;;;13.73;1.77;;;;;;;4.26;100.00;102834.88;5090225;28;20047;-76
2021/11/23 04:59:35;;;;;;;12.90;1.50;;;;;;;4.31;100.00;102848.75;5073410;28;20047;-75
2021/11/23 05:02:02;;;;;;;18.75;3.70;;;;;;;4.44;100.00;102857.84;5089920;28;20153;-75
2021/11/23 05:04:27;;;;;;;;;;;;;;;4.44;100.00;102853.41;5073104;28;20032;-75
2021/11/23 05:06:53;;;;;;;;;;;;;;;4.56;100.00;102867.84;5073331;28;19912;-75
2021/11/23 05:09:18;;;;;;;18.60;3.17;;;;;;;4.56;100.00;102864.34;5089767;28;19915;-75
2021/11/23 05:11:48;;;;;;;24.92;3.72;;;;;;;4.58;100.00;102858.03;5090566;28;20115;-75
2021/11/23 05:14:13;;;;;;;20.88;2.83;;;;;;;4.46;100.00;102831.31;5090372;28;20176;-75
2021/11/23 05:16:38;;;;;;;17.42;1.83;;;;;;;4.38;100.00;102835.19;5089715;28;20035;-75
2021/11/23 05:19:04;;;;;;;12.63;1.60;;;;;;;4.38;100.00;102843.13;5090378;28;20497;-75
2021/11/23 05:21:29;;;;;;;13.75;3.45;;;;;;;4.18;100.00;102812.28;5090510;28;20038;-75
2021/11/23 05:23:55;;;;;;;11.40;1.35;;;;;;;4.29;100.00;102840.06;5089273;28;20040;-75
2021/11/23 05:26:21;;;;;;;13.83;2.70;;;;;;;4.29;100.00;102840.91;5090299;28;20024;-75
2021/11/23 05:28:46;;;;;;;9.88;1.80;;;;;;;4.21;100.00;102841.25;5090176;28;20311;-75
2021/11/23 05:31:12;;;;;;;8.52;1.75;;;;;;;4.13;100.00;102832.81;5089138;28;20465;-75
2021/11/23 05:33:37;;;;;;;20.80;1.80;;;;;;;4.07;100.00;102835.72;5089525;28;20128;-75
2021/11/23 05:36:03;;;;;;;7.53;1.63;;;;;;;4.11;100.00;102847.03;5072724;28;20044;-75
2021/11/23 05:38:29;;;;;;;14.85;1.63;;;;;;;4.16;100.00;102863.53;5088772;28;20039;-75
2021/11/23 05:40:54;;;;;;;14.77;2.25;;;;;;;4.16;100.00;102867.03;5089103;28;20501;-75
2021/11/23 05:43:20;;;;;;;18.73;2.70;;;;;;;4.12;100.00;102859.28;5089812;28;20115;-75
2021/11/23 05:45:46;;;;;;;9.75;2.33;;;;;;;4.12;100.00;102870.75;5089314;28;20452;-75
2021/11/23 05:48:11;;;;;;;18.23;2.33;;;;;;;4.17;100.00;102881.13;5089045;28;20111;-75
2021/11/23 05:50:38;;;;;;;16.67;1.88;;;;;;;4.12;100.00;102876.03;5089896;28;20298;-75
2021/11/23 05:53:03;;;;;;;13.70;2.30;;;;;;;4.27;100.00;102905.38;5088472;28;20036;-75
2021/11/23 05:55:30;;;;;;;15.80;2.20;;;;;;;4.30;100.00;102895.50;5088867;28;20122;-75
2021/11/23 05:57:56;;;;;;;14.13;1.75;;;;;;;4.28;100.00;102896.50;5089811;28;20270;-75
2021/11/23 06:00:22;;;;;;;22.85;2.17;;;;;;;4.33;100.00;102915.66;5089612;28;20111;-78
2021/11/23 06:02:47;;;;;;;9.27;2.35;;;;;;;4.26;100.00;102890.41;5071631;28;20032;-75
2021/11/23 06:05:13;;;;;;;17.67;3.42;;;;;;;4.41;100.00;102913.53;5071588;28;20453;-75
2021/11/23 06:07:38;;;;;;;12.37;2.20;;;;;;;4.50;100.00;102921.06;5088636;28;20035;-74
2021/11/23 06:10:04;;;;;;;9.20;2.80;;;;;;;4.61;100.00;102936.41;5089223;28;20528;-75
2021/11/23 06:12:31;;;;;;;16.40;2.40;;;;;;;4.63;100.00;102923.97;5088491;28;20032;-75
2021/11/23 06:14:58;;;;;;;21.10;3.03;;;;;;;4.65;100.00;102941.50;5088052;28;20369;-75
2021/11/23 06:17:26;;;;;;;13.70;2.38;;;;;;;4.68;100.00;102935.22;5071485;28;20032;-75
2021/11/23 06:19:53;;;;;;;23.58;3.15;;;;;;;4.65;100.00;102917.69;5089201;28;20028;-75
2021/11/23 06:22:19;;;;;;;11.73;1.80;;;;;;;4.46;100.00;102881.59;5089362;28;20449;-75
2021/11/23 06:24:45;;;;;;;13.63;2.25;;;;;;;4.46;100.00;102881.59;5088752;28;20580;-75
2021/11/23 06:27:10;;;;;;;21.60;2.67;;;;;;;4.40;100.00;102864.19;5089274;28;20123;-75
2021/11/23 06:29:36;;;;;;;13.85;2.55;;;;;;;4.30;100.00;102853.19;5071230;28;20362;-75
2021/11/23 06:32:01;;;;;;;24.07;4.50;;;;;;;4.30;100.00;102847.03;5088109;28;20032;-75
2021/11/23 06:34:27;;;;;;;20.02;3.50;;;;;;;4.39;100.00;102867.78;5087532;28;20293;-75
2021/11/23 06:36:52;;;;;;;16.35;1.70;;;;;;;4.34;100.00;102864.50;5089600;28;20035;-75
2021/11/23 06:39:19;;;;;;;24.30;2.63;;;;;;;4.33;100.00;102868.03;5101044;28;20028;-75
2021/11/23 06:41:45;;;;;;;14.65;1.90;;;;;;;4.34;100.00;102875.91;5071159;28;20038;-74
2021/11/23 06:44:10;;;;;;;13.70;2.67;;;;;;;4.28;100.00;102870.03;5088076;28;20039;-75
2021/11/23 06:46:36;;;;;;;10.65;1.85;;;;;;;4.28;100.00;102864.75;5071030;28;20044;-74
2021/11/23 06:49:03;;;;;;;22.45;3.78;;;;;;;4.31;100.00;102869.91;5088643;28;20465;-74
2021/11/23 06:51:29;;;;;;;23.67;5.95;;;;;;;4.36;100.00;102886.44;5086811;28;20111;-75
2021/11/23 06:53:55;;;;;;;8.23;1.55;;;;;;;4.41;100.00;102893.22;5087465;28;20028;-75
2021/11/23 06:56:21;;;;;;;;;;;;;;;4.57;100.00;102911.91;5088042;28;20051;-75
2021/11/23 06:58:47;;;;;;;;;;;;;;;4.54;100.00;102906.75;5088218;28;19912;-75
2021/11/23 07:01:12;;;;;;;19.85;1.55;;;;;;;4.44;100.00;102879.00;5087785;28;20368;-74
2021/11/23 07:03:38;;;;;;;16.30;2.13;;;;;;;4.53;100.00;102902.38;5087412;28;20051;-74
2021/11/23 07:06:03;;;;;;;21.73;2.80;;;;;;;4.56;100.00;102898.75;5087623;28;20028;-74
2021/11/23 07:08:31;;;;;;;9.77;2.30;;;;;;;4.48;100.00;102882.38;5087693;28;20067;-74
2021/11/23 07:10:57;;;;;;;15.10;2.25;;;;;;;4.48;100.00;102883.22;5070399;28;20032;-74
2021/11/23 07:13:22;;;;;;;20.88;3.53;;;;;;;4.44;100.00;102887.78;5088276;28;20036;-74
2021/11/23 07:15:48;;;;;;;14.23;3.42;;;;;;;4.43;100.00;102874.66;5088563;28;20111;-74
2021/11/23 07:18:14;;;;;;;12.68;1.85;;;;;;;4.40;100.00;102854.50;5070795;28;20024;-74
2021/11/23 07:20:39;;;;;;;10.43;1.88;;;;;;;4.32;100.00;102858.41;5087604;28;20024;-74
2021/11/23 07:23:05;;;;;;;14.07;3.17;;;;;;;4.25;100.00;102846.41;5088238;28;20040;-74
2021/11/23 07:25:31;;;;;;;17.77;2.13;;;;;;;4.21;100.00;102843.91;5088257;28;20048;-74
2021/11/23 07:27:58;;;;;;;13.43;2.33;;;;;;;4.17;100.00;102842.31;5088431;28;20062;-74
2021/11/23 07:30:23;;;;;;;18.88;3.42;;;;;;;4.26;100.00;102864.84;5070583;28;20070;-74
2021/11/23 07:32:49;;;;;;;25.30;2.17;;;;;;;4.34;100.00;102869.78;5088338;28;20833;-74
2021/11/23 07:35:18;;;;;;;17.25;3.72;;;;;;;4.41;100.00;102881.78;5086839;28;20635;-74
2021/11/23 07:37:45;;;;;;;17.98;3.88;;;;;;;4.44;100.00;102887.78;5070463;28;20039;-74
2021/11/23 07:40:11;;;;;;;19.15;2.70;;;;;;;4.56;100.00;102915.47;5087533;28;20388;-74
2021/11/23 07:42:37;;;;;;;13.63;2.17;;;;;;;4.61;100.00;102916.13;5087252;28;20036;-74
2021/11/23 07:45:03;;;;;;;;;;;;;;;4.72;100.00;102914.75;5087439;28;20051;-74
2021/11/23 07:47:29;;;;;;;17.23;2.65;;;;;;;4.85;100.00;102910.63;5087323;28;20264;-74
2021/11/23 07:49:54;;;;;;;19.88;3.13;;;;;;;4.98;100.00;102911.75;5088111;28;20036;-74
2021/11/23 07:52:20;;;;;;;16.13;2.30;;;;;;;5.00;100.00;102890.50;5086982;28;20036;-74
2021/11/23 07:54:46;;;;;;;11.27;1.58;;;;;;;5.00;100.00;102880.75;5086936;28;20274;-74
2021/11/23 07:57:11;;;;;;;19.97;3.83;;;;;;;4.99;100.00;102862.31;5088214;28;20093;-74
2021/11/23 07:59:37;;;;;;;17.27;2.13;;;;;;;5.13;100.00;102874.84;5087149;28;20711;-74
2021/11/23 08:02:03;;;;;;;20.30;2.80;;;;;;;5.34;100.00;102884.41;5089643;28;20101;-75
2021/11/23 08:04:28;;;;;;;17.35;3.20;;;;;;;5.59;100.00;102862.81;5090762;28;20036;-75
2021/11/23 08:06:54;;;;;;;15.88;2.20;;;;;;;5.84;100.00;102833.25;5090994;28;20027;-75
2021/11/23 08:09:19;;;;;;;16.37;2.20;;;;;;;6.07;100.00;102786.16;5090894;28;20045;-75
2021/11/23 08:11:45;;;;;;;11.43;2.03;;;;;;;6.46;100.00;102739.75;5091957;28;20039;-75
2021/11/23 08:14:10;;;;;;;13.15;1.73;;;;;;;6.55;100.00;102649.00;5090603;28;20047;-74
2021/11/23 08:16:36;;;;;;;9.88;1.58;;;;;;;6.98;100.00;102596.03;5073846;28;20495;-75
2021/11/23 08:19:02;;;;;;;12.93;1.80;;;;;;;7.51;100.00;102535.13;5090637;28;20067;-75
2021/11/23 08:21:30;;;;;;;;;;;;;;;7.96;100.00;102467.47;5090996;28;20346;-75
2021/11/23 08:23:56;;;;;;;11.35;2.42;;;;;;;8.36;100.00;102398.22;5090227;28;20359;-74
2021/11/23 08:26:26;;;;;;;16.48;1.98;;;;;;;8.72;100.00;102308.69;5073107;28;20115;-74
2021/11/23 08:28:52;;;;;;;13.10;1.75;;;;;;;9.40;100.00;102295.69;5090599;28;20096;-74
2021/11/23 08:31:18;;;;;;;7.55;2.53;;;;;;;9.78;97.60;102267.84;5090345;28;20450;-74
2021/11/23 08:33:44;;;;;;;9.13;1.30;;;;;;;9.89;92.34;102201.19;5072878;28;20039;-74
2021/11/23 08:36:09;;;;;;;5.65;1.20;;;;;;;9.92;88.23;102121.72;5091734;28;20032;-74
2021/11/23 08:38:36;;;;;;;8.00;1.33;;;;;;;9.80;87.30;102097.88;5090304;28;20063;-74
2021/11/23 08:41:03;;;;;;;14.63;2.35;;;;;;;9.86;86.32;102106.25;5090537;28;20071;-74
2021/11/23 08:43:28;;;;;;;14.25;2.83;;;;;;;10.27;85.09;102117.16;5091009;28;20024;-74
2021/11/23 08:45:54;;;;;;;11.77;1.58;;;;;;;9.64;85.31;102076.94;5090124;28;20036;-74
2021/11/23 08:48:20;;;;;;;10.90;1.50;;;;;;;10.11;85.72;102115.75;5073373;28;20083;-74
2021/11/23 08:50:45;;;;;;;9.83;1.53;;;;;;;10.19;84.91;102100.94;5089950;28;20040;-74
2021/11/23 08:53:11;;;;;;;10.50;1.37;;;;;;;10.14;84.19;102071.97;5090629;28;20038;-74
2021/11/23 08:55:37;;;;;;;5.18;1.23;;;;;;;10.42;83.12;102073.19;5073234;28;20320;-74
2021/11/23 08:58:05;;;;;;;6.85;1.35;;;;;;;10.26;82.91;102064.75;5090892;28;20039;-74
2021/11/23 09:00:31;;;;;;;9.93;1.63;;;;;;;10.60;82.69;102083.28;5090775;28;20453;-74
2021/11/23 09:02:59;;;;;;;;;;;;;;;10.34;81.97;102054.31;5090974;28;20368;-75
2021/11/23 09:05:26;;;;;;;11.13;1.98;;;;;;;10.57;81.89;102079.91;5089851;28;20377;-74
2021/11/23 09:07:52;;;;;;;10.10;2.40;;;;;;;10.65;82.10;102087.28;5089723;28;20457;-74
2021/11/23 09:10:22;;;;;;;8.63;2.17;;;;;;;10.39;81.58;102054.75;5089658;28;20036;-74
2021/11/23 09:12:49;;;;;;;9.98;2.35;;;;;;;10.30;82.17;102074.22;5089159;28;20043;-74
2021/11/23 09:15:16;;;;;;;17.58;2.78;;;;;;;10.09;82.74;102051.00;5089075;28;20032;-74
2021/11/23 09:17:42;;;;;;;5.72;2.60;;;;;;;10.30;83.61;102114.25;5090462;28;20032;-74
2021/11/23 09:20:09;;;;;;;14.05;2.63;;;;;;;10.78;82.56;102103.09;5089553;28;20107;-75
2021/11/23 09:22:34;;;;;;;8.88;2.25;;;;;;;10.98;80.85;102072.84;5090720;28;20032;-75
2021/11/23 09:25:00;;;;;;;8.70;1.73;;;;;;;11.14;80.41;102072.38;5072507;28;20042;-75
2021/11/23 09:27:25;;;;;;;10.25;1.90;;;;;;;11.09;79.40;102012.28;5089334;28;20393;-75
2021/11/23 09:29:51;;;;;;;11.27;2.50;;;;;;;11.46;78.96;102049.97;5089413;28;20373;-75
2021/11/23 09:32:17;;;;;;;5.83;1.83;;;;;;;11.29;78.43;102006.00;5089281;28;20028;-74
2021/11/23 09:34:42;;;;;;;9.05;1.65;;;;;;;11.58;77.65;102013.25;5089351;28;20031;-75
2021/11/23 09:37:08;;;;;;;10.23;2.53;;;;;;;11.34;77.86;102000.25;5072455;28;20035;-75
2021/11/23 09:39:34;;;;;;;10.35;1.30;;;;;;;11.19;78.39;101999.78;5089101;28;20024;-75
2021/11/23 09:42:00;;;;;;;8.52;1.83;;;;;;;11.48;78.12;102020.41;5090018;28;20088;-74
2021/11/23 09:44:26;;;;;;;9.73;2.50;;;;;;;11.68;77.39;102007.91;5088958;28;20031;-75
2021/11/23 09:46:51;;;;;;;;;;;;;;;10.55;78.10;101940.31;5072601;28;20418;-75
2021/11/23 09:49:17;;;;;;;;;;;;;;;10.85;80.05;102050.84;5089427;28;20002;-75
2021/11/23 09:51:44;;;;;;;9.20;1.93;;;;;;;10.73;80.20;102019.84;5071909;28;19943;-74
2021/11/23 09:54:10;;;;;;;13.15;4.07;;;;;;;10.75;80.18;102012.56;5071698;28;20020;-75
2021/11/23 09:56:37;;;;;;;6.88;1.33;;;;;;;11.02;79.52;102003.09;5089934;28;20043;-75
2021/11/23 09:59:04;;;;;;;24.20;3.00;;;;;;;11.33;79.33;102042.19;5071948;28;20036;-75
2021/11/23 10:01:44;;;;;;;13.52;1.83;;;;;;;11.35;78.07;102010.78;5089739;28;20039;-75
2021/11/23 10:04:10;;;;;;;13.60;2.83;;;;;;;11.82;77.76;102029.78;5089715;28;20032;-75
2021/11/23 10:06:36;;;;;;;4.05;1.80;;;;;;;11.96;76.89;102019.66;5088709;28;20131;-75
2021/11/23 10:09:01;;;;;;;7.70;2.03;;;;;;;11.37;77.54;101966.06;5071712;28;20036;-75
2021/11/23 10:11:32;;;;;;;7.05;1.67;;;;;;;11.71;77.17;101999.63;5088550;28;20047;-75
2021/11/23 10:14:04;;;;;;;8.93;2.88;;;;;;;11.98;76.18;101977.53;5071332;28;20039;-75
2021/11/23 10:16:39;;;;;;;13.48;2.42;;;;;;;12.57;75.89;102022.00;5088505;28;20044;-75
2021/11/23 10:19:06;;;;;;;7.83;1.90;;;;;;;12.45;74.44;101967.75;5088327;28;20447;-75
2021/11/23 10:21:31;;;;;;;7.82;1.75;;;;;;;12.23;74.35;101941.31;5088321;28;20024;-75
2021/11/23 10:23:57;;;;;;;13.77;3.05;;;;;;;11.80;75.66;101929.22;5087933;28;20042;-76
2021/11/23 10:26:31;;;;;;;10.52;2.13;;;;;;;11.97;76.89;102016.00;5087363;28;20044;-75
2021/11/23 10:29:02;;;;;;;6.72;1.70;;;;;;;12.19;75.20;101974.69;5088215;28;20032;-75
2021/11/23 10:31:31;;;;;;;7.90;1.58;;;;;;;12.81;74.28;102000.06;5089036;28;20043;-75
2021/11/23 10:33:59;;;;;;;10.65;1.40;;;;;;;13.24;72.69;102005.81;5088368;28;20038;-75
2021/11/23 10:36:30;;;;;;;9.05;2.22;;;;;;;13.66;70.69;101970.41;5088171;28;20641;-76
2021/11/23 10:39:25;;;;;;;5.97;1.63;;;;;;;13.86;70.61;101963.91;5088970;28;20047;-75
2021/11/23 10:41:54;;;;;;;12.05;1.58;;;;;;;13.88;69.41;101918.97;5088699;28;20040;-76
2021/11/23 10:44:27;;;;;;;6.10;1.85;;;;;;;13.49;71.26;101956.84;5088872;28;20066;-76
2021/11/23 10:47:03;;;;;;;6.43;1.35;;;;;;;13.05;71.03;101864.66;5088066;28;20043;-75
2021/11/23 10:49:30;;;;;;;;;;;;;;;13.55;71.39;101957.22;5071523;28;20063;-75
2021/11/23 10:51:57;;;;;;;6.63;1.50;;;;;;;12.93;71.32;101853.31;5087641;28;20356;-75
2021/11/23 10:54:23;;;;;;;12.88;1.85;;;;;;;12.68;73.14;101903.91;5087423;28;20453;-76
2021/11/23 10:57:00;;;;;;;11.15;2.05;;;;;;;13.14;72.25;101941.50;5088785;28;20024;-75
2021/11/23 10:59:26;;;;;;;11.77;1.75;;;;;;;13.03;71.91;101896.97;5087780;28;20040;-76
2021/11/23 11:01:52;;;;;;;;;;;;;;;13.25;72.51;101976.16;5089171;28;20071;-76
2021/11/23 11:04:18;;;;;;;;;;;;;;;12.96;72.24;101917.31;5088733;28;19951;-76
2021/11/23 11:06:44;;;;;;;8.38;2.30;;;;;;;12.89;71.98;101870.69;5087608;28;20015;-76
2021/11/23 11:09:10;;;;;;;8.63;1.25;;;;;;;11.87;73.72;101851.88;5087908;28;20079;-76
2021/11/23 11:11:38;;;;;;;8.05;1.90;;;;;;;12.29;75.13;101982.72;5087752;28;20036;-76
2021/11/23 11:14:05;;;;;;;8.63;1.40;;;;;;;12.21;75.03;101933.41;5088126;28;20039;-76
2021/11/23 11:16:35;;;;;;;7.13;1.50;;;;;;;12.18;75.68;101935.53;5088925;28;20039;-76
2021/11/23 11:19:12;;;;;;;9.63;1.30;;;;;;;12.52;73.47;101913.59;5070758;28;20083;-76